createdAt,value
2023-03-13T08:03:24.865Z,9.32
2023-03-13T08:03:52.253Z,9.35
2023-03-13T08:04:15.934Z,9.80
2023-03-13T08:04:38.778Z,9.35
2023-03-13T08:05:01.449Z,9.38
2023-03-13T08:05:24.692Z,9.52
2023-03-13T08:05:47.373Z,9.75
2023-03-13T08:06:11.000Z,9.47
2023-03-13T08:06:35.695Z,9.15
2023-03-13T08:06:58.793Z,9.65
2023-03-13T08:07:21.520Z,9.07
2023-03-13T08:07:45.075Z,9.13
2023-03-13T08:08:07.848Z,9.95
2023-03-13T08:08:33.778Z,9.65
2023-03-13T08:08:57.938Z,9.80
2023-03-13T08:09:20.843Z,10.07
2023-03-13T08:09:46.092Z,10.25
2023-03-13T08:10:12.107Z,9.75
2023-03-13T08:10:34.717Z,9.65
2023-03-13T08:11:01.348Z,9.38
2023-03-13T08:11:25.331Z,9.43
2023-03-13T08:11:49.314Z,9.30
2023-03-13T08:12:11.978Z,9.52
2023-03-13T08:12:34.720Z,9.85
2023-03-13T08:12:57.447Z,9.90
2023-03-13T08:13:22.726Z,9.80
2023-03-13T08:13:45.454Z,9.73
2023-03-13T08:14:08.548Z,9.90
2023-03-13T08:14:31.345Z,10.63
2023-03-13T08:14:54.696Z,11.63
2023-03-13T08:15:21.751Z,12.82
2023-03-13T08:15:44.473Z,14.05
2023-03-13T08:16:08.492Z,13.82
2023-03-13T08:16:34.420Z,12.10
2023-03-13T08:16:57.377Z,12.05
2023-03-13T08:17:20.233Z,12.07
2023-03-13T08:17:42.895Z,11.70
2023-03-13T08:18:05.774Z,12.35
2023-03-13T08:18:28.451Z,12.40
2023-03-13T08:18:53.444Z,11.55
2023-03-13T08:19:16.173Z,11.77
2023-03-13T08:19:39.120Z,11.23
2023-03-13T08:20:01.820Z,11.55
2023-03-13T08:20:24.641Z,11.10
2023-03-13T08:20:47.343Z,11.63
2023-03-13T08:21:11.388Z,10.95
2023-03-13T08:21:34.715Z,11.10
2023-03-13T08:21:57.523Z,10.43
2023-03-13T08:22:20.259Z,9.98
2023-03-13T08:22:43.063Z,10.30
2023-03-13T08:23:05.784Z,9.90
2023-03-13T08:23:28.537Z,9.52
2023-03-13T08:23:53.296Z,9.57
2023-03-13T08:24:16.031Z,9.90
2023-03-13T08:24:38.771Z,9.82
2023-03-13T08:25:01.523Z,9.25
2023-03-13T08:25:24.248Z,9.35
2023-03-13T08:25:47.039Z,8.77
2023-03-13T08:26:11.192Z,8.32
2023-03-13T08:26:34.477Z,9.60
2023-03-13T08:26:59.584Z,9.13
2023-03-13T08:27:22.192Z,9.32
2023-03-13T08:27:44.955Z,8.82
2023-03-13T08:28:07.667Z,8.77
2023-03-13T08:28:30.481Z,9.25
2023-03-13T08:28:54.184Z,9.05
2023-03-13T08:29:17.061Z,8.57
2023-03-13T08:29:39.728Z,8.77
2023-03-13T08:30:05.538Z,9.00
2023-03-13T08:30:28.341Z,9.35
2023-03-13T08:30:53.826Z,9.25
2023-03-13T08:31:17.651Z,10.02
2023-03-13T08:31:43.563Z,9.98
2023-03-13T08:32:06.587Z,9.52
2023-03-13T08:32:29.361Z,9.43
2023-03-13T08:32:52.174Z,9.07
2023-03-13T08:33:15.565Z,9.63
2023-03-13T08:33:40.563Z,9.25
2023-03-13T08:34:04.878Z,8.77
2023-03-13T08:34:27.677Z,9.10
2023-03-13T08:34:50.499Z,8.82
2023-03-13T08:35:13.203Z,8.50
2023-03-13T08:35:35.960Z,8.70
2023-03-13T08:35:58.925Z,9.73
2023-03-13T08:36:25.086Z,9.18
2023-03-13T08:36:47.974Z,9.50
2023-03-13T08:37:10.720Z,8.77
2023-03-13T08:37:33.441Z,9.20
2023-03-13T08:37:56.378Z,9.32
2023-03-13T08:38:19.204Z,9.48
2023-03-13T08:38:45.875Z,9.38
2023-03-13T08:39:11.732Z,9.55
2023-03-13T08:39:34.559Z,9.38
2023-03-13T08:39:57.367Z,9.15
2023-03-13T08:40:20.065Z,9.00
2023-03-13T08:40:42.806Z,8.95
2023-03-13T08:41:05.686Z,9.15
2023-03-13T08:41:29.423Z,9.18
2023-03-13T08:41:52.194Z,9.35
2023-03-13T08:42:15.044Z,9.48
2023-03-13T08:42:39.170Z,9.32
2023-03-13T08:43:02.026Z,8.50
2023-03-13T08:43:24.726Z,8.60
2023-03-13T08:43:47.632Z,9.05
2023-03-13T08:44:11.611Z,9.75
2023-03-13T08:44:34.492Z,9.35
2023-03-13T08:44:57.209Z,9.35
2023-03-13T08:45:20.002Z,9.18
2023-03-13T08:45:42.828Z,9.50
2023-03-13T08:46:05.979Z,9.70
2023-03-13T08:46:29.850Z,9.63
2023-03-13T08:46:52.661Z,9.30
2023-03-13T08:47:15.435Z,9.27
2023-03-13T08:47:38.145Z,9.30
2023-03-13T08:48:01.170Z,9.15
2023-03-13T08:48:23.925Z,9.13
2023-03-13T08:48:50.422Z,9.10
2023-03-13T08:49:17.797Z,9.55
2023-03-13T08:49:40.658Z,9.15
2023-03-13T08:50:06.049Z,9.13
2023-03-13T08:50:29.342Z,9.73
2023-03-13T08:51:01.691Z,9.23
2023-03-13T08:51:27.917Z,9.98
2023-03-13T08:51:50.647Z,9.93
2023-03-13T08:52:13.442Z,10.10
2023-03-13T08:52:36.158Z,9.60
2023-03-13T08:52:58.877Z,9.43
2023-03-13T08:53:21.609Z,9.40
2023-03-13T08:53:44.384Z,9.55
2023-03-13T08:54:08.247Z,9.48
2023-03-13T08:54:30.924Z,9.95
2023-03-13T08:54:53.664Z,9.77
2023-03-13T08:55:16.451Z,9.25
2023-03-13T08:55:39.081Z,9.15
2023-03-13T08:56:02.031Z,9.68
2023-03-13T08:56:25.970Z,9.30
2023-03-13T08:56:48.780Z,9.07
2023-03-13T08:57:11.436Z,9.60
2023-03-13T08:57:36.376Z,9.20
2023-03-13T08:57:59.176Z,9.48
2023-03-13T08:58:21.876Z,9.23
2023-03-13T08:58:44.638Z,9.05
2023-03-13T08:59:07.389Z,8.57
2023-03-13T08:59:30.325Z,9.05
2023-03-13T08:59:53.059Z,9.35
2023-03-13T09:00:19.734Z,9.40
2023-03-13T09:00:42.442Z,9.35
2023-03-13T09:01:05.909Z,9.15
2023-03-13T09:01:29.961Z,9.30
2023-03-13T09:01:52.712Z,9.10
2023-03-13T09:02:20.115Z,9.75
2023-03-13T09:02:43.106Z,9.13
2023-03-13T09:03:06.043Z,9.27
2023-03-13T09:03:28.874Z,9.52
2023-03-13T09:03:52.650Z,9.15
2023-03-13T09:04:16.826Z,8.98
2023-03-13T09:04:39.901Z,9.07
2023-03-13T09:05:02.613Z,9.23
2023-03-13T09:05:25.340Z,9.00
2023-03-13T09:05:55.987Z,9.00
2023-03-13T09:06:19.479Z,9.20
2023-03-13T09:06:42.279Z,9.48
2023-03-13T09:07:05.075Z,9.57
2023-03-13T09:07:27.876Z,8.98
2023-03-13T09:07:52.817Z,8.80
2023-03-13T09:08:16.652Z,8.82
2023-03-13T09:08:39.992Z,9.18
2023-03-13T09:09:05.958Z,8.73
2023-03-13T09:09:28.719Z,8.35
2023-03-13T09:09:51.471Z,8.98
2023-03-13T09:10:14.913Z,9.23
2023-03-13T09:10:37.606Z,8.85
2023-03-13T09:11:01.115Z,9.15
2023-03-13T09:11:23.787Z,9.05
2023-03-13T09:11:46.569Z,9.73
2023-03-13T09:12:24.608Z,9.98
2023-03-13T09:12:52.641Z,9.05
2023-03-13T09:13:15.383Z,9.30
2023-03-13T09:13:39.607Z,9.70
2023-03-13T09:14:02.332Z,9.82
2023-03-13T09:14:25.062Z,9.93
2023-03-13T09:14:48.729Z,10.48
2023-03-13T09:15:11.952Z,10.27
2023-03-13T09:15:34.960Z,10.45
2023-03-13T09:15:57.754Z,10.45
2023-03-13T09:16:22.652Z,10.80
2023-03-13T09:16:46.519Z,10.65
2023-03-13T09:17:09.261Z,10.27
2023-03-13T09:17:31.983Z,10.52
2023-03-13T09:17:54.882Z,10.90
2023-03-13T09:18:17.773Z,10.73
2023-03-13T09:18:40.596Z,10.45
2023-03-13T09:19:03.538Z,11.63
2023-03-13T09:19:27.734Z,12.10
2023-03-13T09:19:59.755Z,10.98
2023-03-13T09:20:23.716Z,10.85
2023-03-13T09:20:48.608Z,10.52
2023-03-13T09:21:13.630Z,10.85
2023-03-13T09:21:36.370Z,10.60
2023-03-13T09:21:59.202Z,10.25
2023-03-13T09:22:21.932Z,9.85
2023-03-13T09:22:44.588Z,10.00
2023-03-13T09:23:07.352Z,10.50
2023-03-13T09:23:30.080Z,10.48
2023-03-13T09:23:52.868Z,10.40
2023-03-13T09:24:15.875Z,10.13
2023-03-13T09:24:38.615Z,9.50
2023-03-13T09:25:01.307Z,10.15
2023-03-13T09:25:24.061Z,9.93
2023-03-13T09:25:46.785Z,10.07
2023-03-13T09:26:09.690Z,9.48
2023-03-13T09:26:32.984Z,9.90
2023-03-13T09:27:01.246Z,9.77
2023-03-13T09:27:24.335Z,9.93
2023-03-13T09:27:47.126Z,9.48
2023-03-13T09:28:09.847Z,8.93
2023-03-13T09:28:34.905Z,8.95
2023-03-13T09:28:57.683Z,9.18
2023-03-13T09:29:20.490Z,9.70
2023-03-13T09:29:43.205Z,9.63
2023-03-13T09:30:07.575Z,8.93
2023-03-13T09:30:30.317Z,9.10
2023-03-13T09:30:53.360Z,9.00
2023-03-13T09:31:17.101Z,9.02
2023-03-13T09:31:41.457Z,9.50
2023-03-13T09:32:05.016Z,9.18
2023-03-13T09:32:27.746Z,8.70
2023-03-13T09:32:50.496Z,8.40
2023-03-13T09:33:13.164Z,8.77
2023-03-13T09:33:35.846Z,8.38
2023-03-13T09:33:58.568Z,8.20
2023-03-13T09:34:23.528Z,7.90
2023-03-13T09:34:47.884Z,8.95
2023-03-13T09:35:10.582Z,9.27
2023-03-13T09:35:33.417Z,9.05
2023-03-13T09:35:56.259Z,8.88
2023-03-13T09:36:22.124Z,9.20
2023-03-13T09:36:45.511Z,9.10
2023-03-13T09:37:08.959Z,9.35
2023-03-13T09:37:31.799Z,10.10
2023-03-13T09:37:54.775Z,9.82
2023-03-13T09:38:17.600Z,9.18
2023-03-13T09:38:40.485Z,8.50
2023-03-13T09:39:03.211Z,9.02
2023-03-13T09:39:25.941Z,9.10
2023-03-13T09:39:49.298Z,8.75
2023-03-13T09:40:15.213Z,8.80
2023-03-13T09:40:39.235Z,8.43
2023-03-13T09:41:06.464Z,8.32
2023-03-13T09:41:33.450Z,8.20
2023-03-13T09:42:00.637Z,8.68
2023-03-13T09:42:28.196Z,8.23
2023-03-13T09:42:52.468Z,8.32
2023-03-13T09:43:23.930Z,8.27
2023-03-13T09:43:48.149Z,7.85
2023-03-13T09:44:17.133Z,8.35
2023-03-13T09:44:40.729Z,8.05
2023-03-13T09:45:05.615Z,7.68
2023-03-13T09:45:34.031Z,7.40
2023-03-13T09:45:59.230Z,7.45
2023-03-13T09:46:27.734Z,8.07
2023-03-13T09:46:58.874Z,7.80
2023-03-13T09:47:23.564Z,7.40
2023-03-13T09:47:47.459Z,7.57
2023-03-13T09:48:12.851Z,7.18
2023-03-13T09:48:37.764Z,7.18
2023-03-13T09:49:01.290Z,6.93
2023-03-13T09:49:30.202Z,7.40
2023-03-13T09:49:55.964Z,7.38
2023-03-13T09:50:20.185Z,7.20
2023-03-13T09:50:43.970Z,7.00
2023-03-13T09:51:08.979Z,7.32
2023-03-13T09:51:35.306Z,7.20
2023-03-13T09:52:05.928Z,6.75
2023-03-13T09:52:31.252Z,6.22
2023-03-13T09:52:56.484Z,6.35
2023-03-13T09:53:25.843Z,6.88
2023-03-13T09:53:52.186Z,7.07
2023-03-13T09:54:22.843Z,7.28
2023-03-13T09:54:49.364Z,6.90
2023-03-13T09:55:15.721Z,6.75
2023-03-13T09:55:38.375Z,6.93
2023-03-13T09:56:01.138Z,6.93
2023-03-13T09:56:29.451Z,7.00
2023-03-13T09:56:55.137Z,7.22
2023-03-13T09:57:22.745Z,7.03
2023-03-13T09:57:49.344Z,6.45
2023-03-13T09:58:13.757Z,6.97
2023-03-13T09:58:36.618Z,6.78
2023-03-13T09:59:02.803Z,6.55
2023-03-13T09:59:33.111Z,6.75
2023-03-13T09:59:57.891Z,6.65
2023-03-13T10:00:24.622Z,6.60
2023-03-13T10:00:48.808Z,6.43
2023-03-13T10:01:11.487Z,7.15
2023-03-13T10:01:34.326Z,6.60
2023-03-13T10:01:58.560Z,6.20
2023-03-13T10:02:29.899Z,6.10
2023-03-13T10:02:56.796Z,5.82
2023-03-13T10:03:22.769Z,6.13
2023-03-13T10:03:50.131Z,5.97
2023-03-13T10:04:21.813Z,6.45
2023-03-13T10:04:46.236Z,6.43
2023-03-13T10:05:15.415Z,6.50
2023-03-13T10:05:39.600Z,6.63
2023-03-13T10:06:04.679Z,6.53
2023-03-13T10:06:27.503Z,6.82
2023-03-13T10:06:52.242Z,6.47
2023-03-13T10:07:14.960Z,6.10
2023-03-13T10:07:37.763Z,6.00
2023-03-13T10:08:17.615Z,6.63
2023-03-13T10:08:40.341Z,6.35
2023-03-13T10:09:03.026Z,6.03
2023-03-13T10:09:29.786Z,6.22
2023-03-13T10:09:53.813Z,6.47
2023-03-13T10:10:18.428Z,6.45
2023-03-13T10:10:47.523Z,6.63
2023-03-13T10:11:11.714Z,6.10
2023-03-13T10:11:37.637Z,5.75
2023-03-13T10:12:07.090Z,5.93
2023-03-13T10:12:30.856Z,4.80
2023-03-13T10:12:56.346Z,4.78
2023-03-13T10:13:22.641Z,5.38
2023-03-13T10:13:47.930Z,5.10
2023-03-13T10:14:13.803Z,5.45
2023-03-13T10:14:43.696Z,5.28
2023-03-13T10:15:32.867Z,5.70
2023-03-13T10:15:56.694Z,5.75
2023-03-13T10:16:22.505Z,5.80
2023-03-13T10:16:46.713Z,5.57
2023-03-13T10:17:14.739Z,5.28
2023-03-13T10:17:38.236Z,5.22
2023-03-13T10:18:03.374Z,4.95
2023-03-13T10:18:26.834Z,5.15
2023-03-13T10:18:53.120Z,4.80
2023-03-13T10:19:17.525Z,4.72
2023-03-13T10:19:43.572Z,4.22
2023-03-13T10:20:17.599Z,4.20
2023-03-13T10:20:40.660Z,4.13
2023-03-13T10:21:10.700Z,4.15
2023-03-13T10:21:34.437Z,4.60
2023-03-13T10:21:57.375Z,4.40
2023-03-13T10:22:22.411Z,4.40
2023-03-13T10:22:45.921Z,4.00
2023-03-13T10:23:12.482Z,4.60
2023-03-13T10:23:38.616Z,4.60
2023-03-13T10:24:03.203Z,4.55
2023-03-13T10:24:30.726Z,4.75
2023-03-13T10:24:56.479Z,4.30
2023-03-13T10:25:25.711Z,4.43
2023-03-13T10:25:48.390Z,4.38
2023-03-13T10:26:14.870Z,4.45
2023-03-13T10:26:37.610Z,4.85
2023-03-13T10:27:00.273Z,4.53
2023-03-13T10:27:23.045Z,4.53
2023-03-13T10:27:50.717Z,4.80
2023-03-13T10:28:19.697Z,5.03
2023-03-13T10:28:42.470Z,5.10
2023-03-13T10:29:22.960Z,4.75
2023-03-13T10:29:45.654Z,4.68
2023-03-13T10:30:12.810Z,4.88
2023-03-13T10:30:36.592Z,4.85
2023-03-13T10:31:02.855Z,4.50
2023-03-13T10:31:27.410Z,4.90
2023-03-13T10:31:56.157Z,4.30
2023-03-13T10:32:19.459Z,4.20
2023-03-13T10:32:42.435Z,4.10
2023-03-13T10:33:20.170Z,4.15
2023-03-13T10:33:43.064Z,3.97
2023-03-13T10:34:08.707Z,3.83
2023-03-13T10:34:44.785Z,3.80
2023-03-13T10:35:11.226Z,4.00
2023-03-13T10:35:36.356Z,3.95
2023-03-13T10:36:05.093Z,4.45
2023-03-13T10:36:27.925Z,4.18
2023-03-13T10:36:54.823Z,4.70
2023-03-13T10:37:21.286Z,4.80
2023-03-13T10:37:44.136Z,5.00
2023-03-13T10:38:09.452Z,5.03
2023-03-13T10:38:34.245Z,4.40
2023-03-13T10:38:56.970Z,4.78
2023-03-13T10:39:21.264Z,5.00
2023-03-13T10:39:44.035Z,4.60
2023-03-13T10:40:14.427Z,4.40
2023-03-13T10:40:37.570Z,4.45
2023-03-13T10:41:01.510Z,4.90
2023-03-13T10:41:29.141Z,4.85
2023-03-13T10:41:56.138Z,4.85
2023-03-13T10:42:22.480Z,5.13
2023-03-13T10:42:45.949Z,5.20
2023-03-13T10:43:15.671Z,5.15
2023-03-13T10:43:38.408Z,5.00
2023-03-13T10:44:03.752Z,4.80
2023-03-13T10:44:31.370Z,5.03
2023-03-13T10:45:01.125Z,5.18
2023-03-13T10:45:25.315Z,5.40
2023-03-13T10:45:48.324Z,4.65
2023-03-13T10:46:11.052Z,4.72
2023-03-13T10:46:34.899Z,5.22
2023-03-13T10:47:00.727Z,4.70
2023-03-13T10:47:23.507Z,5.05
2023-03-13T10:47:46.255Z,5.07
2023-03-13T10:48:13.492Z,4.75
2023-03-13T10:48:37.294Z,5.00
2023-03-13T10:49:01.933Z,4.63
2023-03-13T10:49:24.789Z,4.80
2023-03-13T10:49:48.864Z,4.70
2023-03-13T10:50:18.274Z,4.82
2023-03-13T10:50:44.978Z,4.82
2023-03-13T10:51:12.775Z,5.10
2023-03-13T10:51:37.774Z,5.05
2023-03-13T10:52:01.764Z,5.20
2023-03-13T10:52:33.374Z,4.80
2023-03-13T10:52:56.527Z,4.72
2023-03-13T10:53:31.989Z,4.80
2023-03-13T10:53:54.775Z,4.90
2023-03-13T10:54:22.120Z,4.90
2023-03-13T10:54:44.837Z,4.53
2023-03-13T10:55:10.688Z,4.88
2023-03-13T10:55:33.365Z,4.80
2023-03-13T10:55:58.143Z,4.75
2023-03-13T10:56:25.975Z,4.88
2023-03-13T10:56:48.853Z,4.95
2023-03-13T10:57:26.411Z,4.82
2023-03-13T10:57:55.830Z,5.03
2023-03-13T10:58:20.720Z,5.07
2023-03-13T10:58:44.809Z,5.53
2023-03-13T10:59:21.457Z,4.80
2023-03-13T10:59:45.346Z,4.85
2023-03-13T11:00:28.000Z,5.43
2023-03-13T11:00:50.742Z,4.85
2023-03-13T11:01:18.477Z,5.07
2023-03-13T11:01:45.494Z,4.80
2023-03-13T11:02:20.963Z,5.10
2023-03-13T11:02:45.123Z,5.20
2023-03-13T11:03:14.481Z,4.80
2023-03-13T11:03:37.360Z,4.75
2023-03-13T11:04:03.179Z,4.68
2023-03-13T11:04:30.291Z,5.00
2023-03-13T11:04:55.849Z,4.60
2023-03-13T11:05:31.873Z,4.75
2023-03-13T11:05:59.147Z,4.60
2023-03-13T11:06:29.821Z,5.15
2023-03-13T11:06:53.152Z,4.90
2023-03-13T11:07:16.976Z,4.75
2023-03-13T11:07:40.646Z,4.70
2023-03-13T11:08:21.848Z,4.78
2023-03-13T11:08:44.677Z,5.00
2023-03-13T11:09:12.746Z,4.95
2023-03-13T11:09:35.446Z,4.60
2023-03-13T11:09:59.556Z,4.70
2023-03-13T11:10:23.374Z,4.50
2023-03-13T11:10:54.921Z,4.70
2023-03-13T11:11:19.566Z,5.25
2023-03-13T11:11:47.528Z,4.90
2023-03-13T11:12:12.134Z,4.60
2023-03-13T11:12:35.365Z,4.68
2023-03-13T11:12:58.496Z,4.70
2023-03-13T11:13:36.512Z,4.70
2023-03-13T11:14:08.914Z,4.75
2023-03-13T11:14:31.711Z,4.53
2023-03-13T11:14:58.200Z,4.55
2023-03-13T11:15:23.079Z,4.57
2023-03-13T11:15:48.444Z,4.47
2023-03-13T11:16:20.541Z,4.80
2023-03-13T11:16:50.580Z,4.18
2023-03-13T11:17:19.779Z,4.55
2023-03-13T11:17:43.187Z,4.30
2023-03-13T11:18:08.033Z,4.45
2023-03-13T11:18:33.061Z,4.10
2023-03-13T11:19:10.242Z,4.63
2023-03-13T11:19:42.673Z,4.80
2023-03-13T11:20:20.166Z,4.43
2023-03-13T11:20:43.630Z,4.47
2023-03-13T11:21:17.728Z,4.60
2023-03-13T11:21:45.462Z,4.90
2023-03-13T11:22:17.303Z,4.55
2023-03-13T11:22:53.436Z,4.28
2023-03-13T11:23:19.855Z,4.95
2023-03-13T11:23:44.090Z,4.28
2023-03-13T11:24:09.150Z,4.82
2023-03-13T11:24:36.512Z,4.43
2023-03-13T11:25:17.789Z,4.55
2023-03-13T11:25:43.709Z,4.78
2023-03-13T11:26:10.560Z,4.72
2023-03-13T11:26:35.317Z,4.47
2023-03-13T11:27:04.632Z,4.18
2023-03-13T11:27:30.977Z,4.25
2023-03-13T11:28:09.937Z,3.90
2023-03-13T11:28:41.996Z,4.00
2023-03-13T11:29:09.449Z,4.00
2023-03-13T11:29:36.538Z,3.83
2023-03-13T11:30:19.647Z,4.15
2023-03-13T11:30:51.901Z,4.60
2023-03-13T11:31:15.610Z,4.95
2023-03-13T11:31:40.221Z,4.33
2023-03-13T11:32:07.682Z,4.55
2023-03-13T11:32:36.691Z,4.75
2023-03-13T11:33:01.114Z,4.10
2023-03-13T11:33:30.460Z,4.00
2023-03-13T11:33:58.884Z,4.00
2023-03-13T11:34:28.130Z,4.25
2023-03-13T11:34:52.501Z,3.75
2023-03-13T11:35:33.847Z,3.60
2023-03-13T11:36:01.445Z,3.60
2023-03-13T11:36:29.196Z,3.58
2023-03-13T11:36:53.656Z,3.42
2023-03-13T11:37:16.671Z,3.55
2023-03-13T11:37:39.368Z,3.50
2023-03-13T11:38:02.352Z,3.63
2023-03-13T11:38:27.817Z,4.05
2023-03-13T11:38:53.832Z,4.13
2023-03-13T11:39:37.890Z,3.67
2023-03-13T11:40:07.026Z,3.60
2023-03-13T11:40:31.982Z,3.58
2023-03-13T11:40:59.897Z,3.88
2023-03-13T11:41:31.081Z,4.05
2023-03-13T11:42:00.122Z,4.13
2023-03-13T11:42:47.225Z,4.07
2023-03-13T11:43:28.382Z,3.85
2023-03-13T11:44:21.470Z,3.70
2023-03-13T11:44:48.420Z,3.90
2023-03-13T11:45:17.091Z,3.55
2023-03-13T11:45:57.678Z,3.50
2023-03-13T11:46:26.348Z,3.40
2023-03-13T11:46:54.635Z,3.50
2023-03-13T11:47:25.734Z,3.67
2023-03-13T11:47:53.725Z,3.75
2023-03-13T11:48:19.707Z,3.45
2023-03-13T11:49:03.750Z,3.22
2023-03-13T11:49:53.372Z,3.42
2023-03-13T11:50:23.660Z,3.80
2023-03-13T11:50:48.368Z,3.70
2023-03-13T11:51:14.444Z,3.33
2023-03-13T11:51:43.450Z,3.35
2023-03-13T11:52:13.171Z,3.60
2023-03-13T11:52:43.736Z,3.25
2023-03-13T11:53:21.625Z,3.55
2023-03-13T11:53:57.775Z,3.30
2023-03-13T11:54:36.964Z,3.30
2023-03-13T11:55:18.095Z,3.50
2023-03-13T11:55:58.282Z,3.70
2023-03-13T11:56:22.725Z,3.05
2023-03-13T11:56:47.580Z,3.53
2023-03-13T11:57:13.710Z,3.15
2023-03-13T11:57:40.140Z,3.60
2023-03-13T11:58:15.415Z,3.47
2023-03-13T11:58:53.979Z,3.50
2023-03-13T11:59:26.726Z,3.50
2023-03-13T11:59:52.311Z,3.45
2023-03-13T12:00:23.112Z,2.92
2023-03-13T12:00:48.370Z,3.15
2023-03-13T12:01:12.459Z,3.20
2023-03-13T12:01:38.288Z,3.20
2023-03-13T12:02:03.238Z,3.58
2023-03-13T12:02:27.655Z,2.95
2023-03-13T12:02:52.151Z,3.05
2023-03-13T12:03:16.557Z,3.30
2023-03-13T12:03:40.986Z,3.40
2023-03-13T12:04:05.408Z,3.45
2023-03-13T12:04:30.088Z,3.40
2023-03-13T12:04:54.909Z,3.10
2023-03-13T12:05:19.416Z,3.30
2023-03-13T12:05:45.814Z,3.53
2023-03-13T12:06:27.381Z,3.40
2023-03-13T12:06:54.826Z,3.45
2023-03-13T12:07:21.309Z,3.50
2023-03-13T12:07:47.388Z,3.55
2023-03-13T12:08:12.680Z,3.70
2023-03-13T12:08:36.812Z,3.30
2023-03-13T12:09:03.534Z,3.30
2023-03-13T12:09:28.407Z,3.55
2023-03-13T12:09:53.906Z,3.78
2023-03-13T12:10:18.605Z,3.47
2023-03-13T12:10:43.520Z,3.42
2023-03-13T12:11:12.346Z,3.47
2023-03-13T12:11:43.888Z,3.83
2023-03-13T12:12:12.331Z,3.80
2023-03-13T12:12:38.835Z,3.90
2023-03-13T12:13:04.345Z,4.32
2023-03-13T12:13:29.137Z,4.00
2023-03-13T12:13:54.568Z,4.30
2023-03-13T12:14:18.877Z,4.32
2023-03-13T12:14:43.830Z,3.90
2023-03-13T12:15:23.570Z,4.22
2023-03-13T12:15:47.422Z,4.00
2023-03-13T12:16:12.218Z,4.65
2023-03-13T12:16:40.523Z,4.07
2023-03-13T12:17:04.164Z,3.90
2023-03-13T12:17:31.920Z,3.40
2023-03-13T12:17:56.835Z,3.53
2023-03-13T12:18:21.148Z,3.90
2023-03-13T12:18:44.436Z,3.80
2023-03-13T12:19:10.200Z,4.00
2023-03-13T12:19:36.645Z,4.32
2023-03-13T12:20:01.605Z,4.20
2023-03-13T12:20:25.688Z,3.92
2023-03-13T12:20:53.608Z,3.78
2023-03-13T12:21:19.730Z,4.30
2023-03-13T12:21:45.463Z,3.80
2023-03-13T12:22:14.575Z,3.85
2023-03-13T12:22:39.564Z,3.67
2023-03-13T12:23:17.319Z,3.90
2023-03-13T12:23:44.306Z,3.85
2023-03-13T12:24:10.401Z,4.25
2023-03-13T12:24:34.230Z,4.10
2023-03-13T12:25:00.834Z,3.80
2023-03-13T12:25:25.135Z,3.70
2023-03-13T12:25:52.247Z,4.07
2023-03-13T12:26:15.785Z,3.88
2023-03-13T12:26:41.398Z,4.03
2023-03-13T12:27:09.419Z,3.80
2023-03-13T12:27:33.655Z,3.90
2023-03-13T12:27:58.603Z,3.95
2023-03-13T12:28:29.340Z,3.78
2023-03-13T12:28:59.389Z,3.65
2023-03-13T12:29:28.358Z,3.85
2023-03-13T12:29:55.556Z,3.35
2023-03-13T12:30:26.357Z,3.90
2023-03-13T12:30:50.712Z,4.07
2023-03-13T12:31:18.463Z,3.72
2023-03-13T12:31:42.687Z,3.78
2023-03-13T12:32:08.652Z,3.80
2023-03-13T12:32:35.021Z,3.58
2023-03-13T12:33:02.332Z,3.80
2023-03-13T12:33:26.623Z,4.13
2023-03-13T12:33:53.531Z,4.00
2023-03-13T12:34:18.899Z,4.00
2023-03-13T12:34:47.982Z,4.25
2023-03-13T12:35:18.219Z,3.80
2023-03-13T12:35:41.286Z,3.88
2023-03-13T12:36:08.721Z,4.07
2023-03-13T12:36:33.934Z,3.83
2023-03-13T12:37:01.294Z,3.75
2023-03-13T12:37:29.582Z,3.80
2023-03-13T12:37:54.644Z,3.78
2023-03-13T12:38:20.161Z,3.83
2023-03-13T12:38:46.890Z,3.67
2023-03-13T12:39:21.087Z,3.88
2023-03-13T12:39:50.252Z,3.55
2023-03-13T12:40:16.566Z,3.80
2023-03-13T12:40:42.413Z,3.60
2023-03-13T12:41:18.707Z,3.70
2023-03-13T12:41:43.321Z,3.50
2023-03-13T12:42:16.447Z,3.60
2023-03-13T12:42:45.775Z,3.45
2023-03-13T12:43:11.462Z,3.67
2023-03-13T12:43:34.591Z,3.38
2023-03-13T12:44:08.213Z,3.67
2023-03-13T12:44:31.819Z,3.33
2023-03-13T12:44:54.464Z,3.40
2023-03-13T12:45:18.947Z,3.40
2023-03-13T12:45:54.825Z,3.40
2023-03-13T12:46:43.005Z,3.60
2023-03-13T12:47:09.099Z,3.47
2023-03-13T12:47:32.809Z,3.70
2023-03-13T12:48:13.791Z,3.45
2023-03-13T12:48:56.242Z,3.50
2023-03-13T12:50:04.501Z,3.45
2023-03-13T12:50:32.262Z,3.38
2023-03-13T12:51:07.836Z,3.30
2023-03-13T12:51:40.645Z,3.58
2023-03-13T12:52:22.101Z,3.13
2023-03-13T12:53:02.401Z,3.45
2023-03-13T12:53:53.715Z,3.60
2023-03-13T12:54:32.872Z,3.38
2023-03-13T12:55:09.053Z,3.70
2023-03-13T12:55:58.844Z,3.30
2023-03-13T12:56:44.648Z,3.13
2023-03-13T12:57:17.141Z,3.30
2023-03-13T12:58:10.755Z,3.47
2023-03-13T12:58:45.347Z,3.13
2023-03-13T12:59:08.656Z,3.33
2023-03-13T12:59:32.826Z,3.03
2023-03-13T12:59:56.396Z,3.10
2023-03-13T13:00:20.550Z,3.15
2023-03-13T13:00:44.983Z,3.30
2023-03-13T13:01:07.907Z,3.08
2023-03-13T13:01:33.450Z,3.20
2023-03-13T13:01:56.869Z,3.03
2023-03-13T13:02:21.042Z,3.05
2023-03-13T13:02:43.786Z,2.72
2023-03-13T13:03:11.051Z,2.85
2023-03-13T13:03:36.575Z,3.00
2023-03-13T13:04:00.547Z,3.05
2023-03-13T13:04:43.481Z,3.00
2023-03-13T13:05:24.910Z,2.92
2023-03-13T13:06:07.669Z,2.88
2023-03-13T13:06:57.777Z,2.90
2023-03-13T13:07:40.649Z,2.35
2023-03-13T13:08:05.234Z,2.70
2023-03-13T13:08:27.887Z,2.78
2023-03-13T13:09:08.408Z,2.60
2023-03-13T13:09:31.815Z,2.80
2023-03-13T13:10:03.375Z,2.40
2023-03-13T13:10:26.715Z,2.63
2023-03-13T13:10:49.503Z,2.30
2023-03-13T13:11:47.391Z,2.60
2023-03-13T13:12:20.059Z,2.40
2023-03-13T13:12:42.864Z,2.45
2023-03-13T13:13:20.067Z,2.30
2023-03-13T13:13:42.793Z,2.30
2023-03-13T13:14:27.258Z,2.22
2023-03-13T13:15:04.273Z,2.47
2023-03-13T13:15:27.270Z,2.53
2023-03-13T13:15:59.958Z,2.42
2023-03-13T13:16:22.943Z,2.40
2023-03-13T13:16:46.698Z,2.28
2023-03-13T13:17:16.845Z,2.33
2023-03-13T13:18:01.260Z,2.20
2023-03-13T13:18:27.376Z,2.33
2023-03-13T13:18:50.319Z,2.25
2023-03-13T13:19:46.428Z,2.20
2023-03-13T13:20:44.438Z,2.33
2023-03-13T13:21:21.965Z,2.60
2023-03-13T13:21:44.802Z,2.28
2023-03-13T13:22:40.789Z,2.50
2023-03-13T13:23:34.020Z,2.75
2023-03-13T13:24:00.117Z,2.83
2023-03-13T13:24:41.766Z,2.60
2023-03-13T13:25:27.682Z,2.55
2023-03-13T13:25:50.568Z,2.45
2023-03-13T13:26:49.540Z,2.45
2023-03-13T13:27:44.953Z,2.40
2023-03-13T13:28:35.146Z,2.50
2023-03-13T13:28:58.577Z,2.63
2023-03-13T13:29:57.007Z,2.70
2023-03-13T13:30:38.176Z,2.50
2023-03-13T13:31:01.028Z,2.58
2023-03-13T13:31:57.196Z,2.58
2023-03-13T13:32:20.037Z,2.75
2023-03-13T13:32:45.110Z,2.72
2023-03-13T13:33:38.540Z,2.60
2023-03-13T13:34:01.184Z,3.00
2023-03-13T13:34:54.770Z,2.88
2023-03-13T13:35:33.305Z,2.85
2023-03-13T13:36:27.605Z,2.72
2023-03-13T13:36:50.315Z,2.60
2023-03-13T13:37:26.298Z,2.90
2023-03-13T13:37:49.658Z,2.60
2023-03-13T13:38:39.874Z,2.60
2023-03-13T13:39:03.558Z,3.08
2023-03-13T13:39:36.334Z,2.78
2023-03-13T13:40:20.796Z,2.70
2023-03-13T13:40:57.914Z,2.70
2023-03-13T13:41:34.776Z,2.67
2023-03-13T13:41:57.545Z,2.60
2023-03-13T13:42:48.638Z,2.60
2023-03-13T13:43:21.450Z,2.78
2023-03-13T13:43:44.485Z,2.90
2023-03-13T13:44:27.317Z,2.90
2023-03-13T13:44:59.046Z,3.28
2023-03-13T13:45:29.769Z,3.03
2023-03-13T13:45:59.779Z,2.75
2023-03-13T13:46:24.953Z,2.75
2023-03-13T13:46:47.821Z,2.60
2023-03-13T13:47:22.317Z,2.70
2023-03-13T13:47:46.505Z,3.03
2023-03-13T13:48:28.075Z,3.10
2023-03-13T13:49:12.345Z,3.05
2023-03-13T13:49:56.050Z,3.00
2023-03-13T13:50:20.053Z,2.70
2023-03-13T13:51:15.789Z,2.90
2023-03-13T13:51:38.919Z,3.17
2023-03-13T13:52:35.840Z,3.20
2023-03-13T13:53:24.796Z,2.80
2023-03-13T13:53:50.891Z,3.30
2023-03-13T13:54:32.019Z,3.10
2023-03-13T13:54:56.701Z,3.10
2023-03-13T13:55:33.788Z,3.20
2023-03-13T13:55:58.921Z,3.25
2023-03-13T13:56:39.493Z,3.20
2023-03-13T13:57:03.366Z,3.22
2023-03-13T13:57:26.527Z,3.15
2023-03-13T13:57:49.930Z,3.10
2023-03-13T13:58:15.211Z,3.00
2023-03-13T13:58:39.843Z,2.80
2023-03-13T13:59:05.225Z,2.97
2023-03-13T13:59:36.910Z,3.03
2023-03-13T14:00:05.790Z,2.95
2023-03-13T14:00:29.287Z,3.20
2023-03-13T14:00:54.342Z,2.90
2023-03-13T14:01:17.081Z,2.97
2023-03-13T14:01:40.716Z,2.83
2023-03-13T14:02:24.397Z,2.90
2023-03-13T14:02:50.428Z,2.90
2023-03-13T14:03:19.565Z,3.03
2023-03-13T14:03:42.383Z,2.80
2023-03-13T14:04:12.336Z,2.97
2023-03-13T14:04:36.582Z,3.10
2023-03-13T14:05:07.265Z,3.17
2023-03-13T14:05:30.945Z,3.63
2023-03-13T14:05:55.687Z,3.22
2023-03-13T14:06:20.021Z,2.90
2023-03-13T14:06:43.524Z,3.10
2023-03-13T14:07:06.317Z,2.90
2023-03-13T14:07:31.907Z,3.15